createdAt,value
2018-01-26T00:01:18.344Z,5.80
2018-01-26T00:03:46.444Z,5.60
2018-01-26T00:06:14.552Z,5.87
2018-01-26T00:08:42.674Z,3.97
2018-01-26T00:11:10.836Z,3.87
2018-01-26T00:13:38.927Z,4.17
2018-01-26T00:16:07.792Z,7.43
2018-01-26T00:18:36.026Z,3.70
2018-01-26T00:21:04.204Z,5.57
2018-01-26T00:23:32.304Z,4.43
2018-01-26T00:26:00.399Z,4.77
2018-01-26T00:28:28.497Z,3.93
2018-01-26T00:30:56.593Z,4.10
2018-01-26T00:33:24.723Z,3.83
2018-01-26T00:35:52.863Z,3.50
2018-01-26T00:38:20.972Z,3.97
2018-01-26T00:40:49.047Z,3.87
2018-01-26T00:43:17.227Z,3.33
2018-01-26T00:45:45.908Z,5.50
2018-01-26T00:48:14.035Z,4.93
2018-01-26T00:50:42.238Z,4.87
2018-01-26T00:53:10.428Z,5.10
2018-01-26T00:55:38.511Z,3.67
2018-01-26T00:58:06.631Z,4.20
2018-01-26T01:00:34.744Z,5.70
2018-01-26T01:03:02.844Z,2.73
2018-01-26T01:05:30.919Z,3.00
2018-01-26T01:07:59.776Z,6.17
2018-01-26T01:10:27.871Z,8.27
2018-01-26T01:12:55.968Z,3.27
2018-01-26T01:15:24.066Z,3.63
2018-01-26T01:17:52.148Z,3.60
2018-01-26T01:20:20.252Z,4.17
2018-01-26T01:22:48.374Z,4.43
2018-01-26T01:25:16.464Z,2.97
2018-01-26T01:27:45.150Z,4.30
2018-01-26T01:30:13.286Z,4.83
2018-01-26T01:32:41.400Z,4.20
2018-01-26T01:35:09.486Z,5.60
2018-01-26T01:37:37.592Z,3.20
2018-01-26T01:40:05.688Z,3.53
2018-01-26T01:42:33.783Z,4.70
2018-01-26T01:45:01.899Z,5.00
2018-01-26T01:47:29.990Z,2.93
2018-01-26T01:49:58.871Z,3.63
2018-01-26T01:52:26.959Z,5.10
2018-01-26T01:54:55.063Z,4.83
2018-01-26T01:57:23.151Z,3.40
2018-01-26T01:59:51.245Z,3.47
2018-01-26T02:02:19.340Z,3.47
2018-01-26T02:04:47.439Z,4.17
2018-01-26T02:07:15.561Z,3.10
2018-01-26T02:09:43.669Z,3.67
2018-01-26T02:12:11.759Z,2.00
2018-01-26T02:14:39.871Z,2.63
2018-01-26T02:17:07.967Z,2.40
2018-01-26T02:19:36.092Z,3.03
2018-01-26T02:22:04.929Z,3.47
2018-01-26T02:24:33.071Z,2.40
2018-01-26T02:27:01.166Z,3.17
2018-01-26T02:29:30.141Z,3.87
2018-01-26T02:31:58.370Z,3.20
2018-01-26T02:34:26.497Z,3.50
2018-01-26T02:36:54.593Z,2.73
2018-01-26T02:39:22.676Z,5.80
2018-01-26T02:41:50.806Z,2.73
2018-01-26T02:44:18.870Z,4.17
2018-01-26T02:46:46.966Z,2.97
2018-01-26T02:49:15.820Z,2.90
2018-01-26T02:51:43.916Z,3.43
2018-01-26T02:54:12.001Z,3.20
2018-01-26T02:56:40.074Z,2.37
2018-01-26T02:59:08.946Z,3.13
2018-01-26T03:01:37.036Z,4.33
2018-01-26T03:04:05.913Z,3.07
2018-01-26T03:06:33.997Z,2.53
2018-01-26T03:09:02.859Z,2.87
2018-01-26T03:11:30.960Z,2.40
2018-01-26T03:13:59.815Z,3.10
2018-01-26T03:16:27.920Z,5.17
2018-01-26T03:18:56.787Z,3.30
2018-01-26T03:21:24.905Z,2.60
2018-01-26T03:23:52.992Z,2.63
2018-01-26T03:26:21.070Z,3.30
2018-01-26T03:28:49.210Z,2.83
2018-01-26T03:31:17.339Z,2.37
2018-01-26T03:33:45.459Z,1.80
2018-01-26T03:36:13.563Z,2.90
2018-01-26T03:38:41.637Z,5.93
2018-01-26T03:41:09.742Z,3.97
2018-01-26T03:43:38.171Z,3.40
2018-01-26T03:46:06.279Z,2.77
2018-01-26T03:48:34.357Z,2.50
2018-01-26T03:51:02.462Z,2.33
2018-01-26T03:53:30.600Z,2.30
2018-01-26T03:55:59.118Z,3.47
2018-01-26T03:58:27.966Z,3.10
2018-01-26T04:00:56.134Z,3.00
2018-01-26T04:03:24.224Z,3.23
2018-01-26T04:05:52.310Z,3.23
2018-01-26T04:08:20.402Z,3.53
2018-01-26T04:10:48.492Z,2.97
2018-01-26T04:13:16.580Z,3.80
2018-01-26T04:15:44.718Z,3.27
2018-01-26T04:18:12.830Z,3.43
2018-01-26T04:20:41.448Z,2.80
2018-01-26T04:23:09.598Z,2.60
2018-01-26T04:25:37.717Z,3.27
2018-01-26T04:28:05.816Z,3.00
2018-01-26T04:30:33.901Z,2.47
2018-01-26T04:33:02.031Z,3.30
2018-01-26T04:35:30.883Z,3.87
2018-01-26T04:37:59.016Z,2.43
2018-01-26T04:40:27.107Z,3.67
2018-01-26T04:42:55.186Z,2.30
2018-01-26T04:45:23.275Z,2.80
2018-01-26T04:47:51.357Z,2.53
2018-01-26T04:50:19.475Z,2.33
2018-01-26T04:52:47.591Z,6.07
2018-01-26T04:55:15.787Z,4.33
2018-01-26T04:57:43.888Z,2.77
2018-01-26T05:00:11.989Z,3.50
2018-01-26T05:02:40.080Z,2.60
2018-01-26T05:05:08.167Z,2.77
2018-01-26T05:07:36.235Z,2.30
2018-01-26T05:10:04.358Z,3.20
2018-01-26T05:12:32.439Z,2.30
2018-01-26T05:15:00.538Z,3.47
2018-01-26T05:17:28.636Z,2.87
2018-01-26T05:19:56.718Z,3.27
2018-01-26T05:22:24.877Z,2.37
2018-01-26T05:24:53.031Z,5.33
2018-01-26T05:27:21.126Z,3.47
2018-01-26T05:29:49.212Z,3.43
2018-01-26T05:32:17.302Z,3.37
2018-01-26T05:34:45.422Z,2.67
2018-01-26T05:37:13.528Z,2.47
2018-01-26T05:39:42.373Z,4.20
2018-01-26T05:42:10.887Z,3.70
2018-01-26T05:44:39.789Z,3.00
2018-01-26T05:47:07.884Z,4.63
2018-01-26T05:49:35.977Z,3.07
2018-01-26T05:52:04.062Z,3.30
2018-01-26T05:54:32.165Z,2.60
2018-01-26T05:57:00.265Z,5.30
2018-01-26T05:59:28.389Z,3.07
2018-01-26T06:01:56.483Z,4.30
2018-01-26T06:04:24.584Z,2.93
2018-01-26T06:06:52.726Z,3.30
2018-01-26T06:09:20.825Z,5.28
2018-01-26T06:11:48.915Z,4.87
2018-01-26T06:14:17.011Z,3.47
2018-01-26T06:16:45.115Z,7.73
2018-01-26T06:19:14.001Z,4.53
2018-01-26T06:21:42.085Z,2.77
2018-01-26T06:24:10.966Z,3.50
2018-01-26T06:26:39.105Z,3.70
2018-01-26T06:29:07.203Z,5.67
2018-01-26T06:31:35.365Z,4.10
2018-01-26T06:34:03.454Z,3.97
2018-01-26T06:36:32.258Z,5.80
2018-01-26T06:40:40.706Z,5.63
2018-01-26T06:43:08.840Z,4.10
2018-01-26T06:45:37.330Z,4.43
2018-01-26T06:48:06.166Z,2.57
2018-01-26T06:50:34.272Z,3.93
2018-01-26T06:53:02.376Z,3.17
2018-01-26T06:55:30.458Z,6.33
2018-01-26T06:57:58.572Z,4.37
2018-01-26T07:00:26.692Z,3.60
2018-01-26T07:02:54.960Z,4.00
2018-01-26T07:05:23.046Z,7.53
2018-01-26T07:07:51.134Z,7.57
2018-01-26T07:10:19.711Z,9.40
2018-01-26T07:12:47.832Z,5.80
2018-01-26T07:15:15.926Z,6.73
2018-01-26T07:17:44.051Z,7.13
2018-01-26T07:20:12.171Z,5.70
2018-01-26T07:22:40.275Z,7.40
2018-01-26T07:25:08.379Z,6.47
2018-01-26T07:27:36.474Z,6.27
2018-01-26T07:30:04.671Z,6.30
2018-01-26T07:32:33.513Z,6.73
2018-01-26T07:35:01.603Z,5.47
2018-01-26T07:37:29.695Z,6.27
2018-01-26T07:39:57.783Z,7.53
2018-01-26T07:42:25.931Z,9.13
2018-01-26T07:44:54.111Z,5.30
2018-01-26T07:47:22.201Z,4.40
2018-01-26T07:49:50.307Z,6.17
2018-01-26T07:52:19.151Z,4.67
2018-01-26T07:54:47.995Z,5.40
2018-01-26T07:57:16.123Z,4.10
2018-01-26T07:59:44.216Z,5.30
2018-01-26T08:02:12.297Z,4.40
2018-01-26T08:04:40.372Z,5.90
2018-01-26T08:07:08.470Z,3.50
2018-01-26T08:09:36.751Z,7.57
2018-01-26T08:12:05.026Z,7.43
2018-01-26T08:14:33.131Z,4.83
2018-01-26T08:17:01.214Z,3.87
2018-01-26T08:19:29.320Z,6.00
2018-01-26T08:21:57.408Z,5.77
2018-01-26T08:24:25.486Z,6.70
2018-01-26T08:26:53.580Z,4.67
2018-01-26T08:29:21.656Z,6.73
2018-01-26T08:31:49.782Z,4.70
2018-01-26T08:34:17.958Z,4.60
2018-01-26T08:36:46.076Z,3.77
2018-01-26T08:39:14.931Z,4.13
2018-01-26T08:41:43.029Z,4.10
2018-01-26T08:44:11.883Z,4.93
2018-01-26T08:46:40.752Z,3.77
2018-01-26T08:49:08.850Z,3.97
2018-01-26T08:51:36.925Z,4.10
2018-01-26T08:54:05.019Z,5.83
2018-01-26T08:56:33.115Z,3.90
2018-01-26T08:59:01.261Z,4.27
2018-01-26T09:01:29.336Z,4.43
2018-01-26T09:03:57.421Z,6.00
2018-01-26T09:06:25.497Z,5.80
2018-01-26T09:08:53.597Z,3.33
2018-01-26T09:11:21.716Z,5.03
2018-01-26T09:13:49.802Z,4.53
2018-01-26T09:16:18.664Z,3.23
2018-01-26T09:18:46.738Z,2.83
2018-01-26T09:21:14.878Z,2.97
2018-01-26T09:23:42.981Z,4.03
2018-01-26T09:26:11.079Z,4.87
2018-01-26T09:28:39.161Z,6.03
2018-01-26T09:31:07.253Z,5.47
2018-01-26T09:33:35.329Z,5.00
2018-01-26T09:36:03.418Z,5.53
2018-01-26T09:38:31.514Z,7.13
2018-01-26T09:40:59.730Z,3.73
2018-01-26T09:43:27.858Z,4.50
2018-01-26T09:45:55.965Z,3.40
2018-01-26T09:48:24.673Z,4.17
2018-01-26T09:50:52.800Z,5.17
2018-01-26T09:53:20.972Z,6.83
2018-01-26T09:55:49.092Z,5.17
2018-01-26T09:58:17.184Z,4.13
2018-01-26T10:00:45.278Z,5.90
2018-01-26T10:03:13.371Z,3.67
2018-01-26T10:05:41.463Z,5.73
2018-01-26T10:08:09.571Z,4.37
2018-01-26T10:10:37.713Z,5.67
2018-01-26T10:13:05.832Z,3.20
2018-01-26T10:15:33.935Z,5.57
2018-01-26T10:18:02.659Z,5.37
2018-01-26T10:20:30.783Z,4.60
2018-01-26T10:22:59.023Z,3.17
2018-01-26T10:25:27.229Z,3.10
2018-01-26T10:27:56.279Z,3.70
2018-01-26T10:30:24.393Z,3.53
2018-01-26T10:32:52.469Z,3.37
2018-01-26T10:35:20.559Z,3.03
2018-01-26T10:37:48.643Z,4.17
2018-01-26T10:40:16.749Z,4.33
2018-01-26T10:42:44.987Z,3.13
2018-01-26T10:45:13.163Z,5.53
2018-01-26T10:47:41.271Z,4.03
2018-01-26T10:50:09.368Z,5.30
2018-01-26T10:52:37.457Z,3.30
2018-01-26T10:55:05.580Z,3.77
2018-01-26T10:57:33.664Z,5.10
2018-01-26T11:00:01.812Z,5.37
2018-01-26T11:02:29.930Z,4.30
2018-01-26T11:04:58.080Z,8.93
2018-01-26T11:07:26.164Z,5.73
2018-01-26T11:09:54.263Z,5.03
2018-01-26T11:12:22.363Z,5.53
2018-01-26T11:14:50.858Z,4.27
2018-01-26T11:17:19.596Z,7.90
2018-01-26T11:19:47.728Z,8.93
2018-01-26T11:22:15.950Z,8.93
2018-01-26T11:24:44.189Z,9.53
2018-01-26T11:27:12.399Z,8.97
2018-01-26T11:29:40.632Z,8.90
2018-01-26T11:32:08.756Z,8.53
2018-01-26T11:34:41.479Z,10.50
2018-01-26T11:37:09.586Z,11.60
2018-01-26T11:39:37.679Z,11.17
2018-01-26T11:42:06.587Z,8.37
2018-01-26T11:44:34.699Z,10.43
2018-01-26T11:47:02.791Z,12.67
2018-01-26T11:49:30.928Z,11.87
2018-01-26T11:51:59.025Z,13.20
2018-01-26T11:54:27.127Z,9.00
2018-01-26T11:56:55.221Z,10.33
2018-01-26T11:59:23.321Z,10.57
2018-01-26T12:01:51.491Z,10.83
2018-01-26T12:04:19.595Z,11.80
2018-01-26T12:06:47.687Z,11.43
2018-01-26T12:09:15.833Z,12.47
2018-01-26T12:11:43.940Z,12.07
2018-01-26T12:14:12.070Z,10.27
2018-01-26T12:16:40.952Z,10.87
2018-01-26T12:19:09.430Z,12.13
2018-01-26T12:21:37.539Z,11.03
2018-01-26T12:24:05.662Z,11.10
2018-01-26T12:26:33.742Z,12.73
2018-01-26T12:29:01.845Z,12.13
2018-01-26T12:31:29.968Z,12.57
2018-01-26T12:33:58.060Z,11.07
2018-01-26T12:36:26.160Z,12.07
2018-01-26T12:38:54.252Z,11.37
2018-01-26T12:41:23.122Z,12.83
2018-01-26T12:43:51.210Z,12.37
2018-01-26T12:46:20.196Z,8.70
2018-01-26T12:48:48.430Z,9.50
2018-01-26T12:51:16.541Z,10.83
2018-01-26T12:53:44.654Z,12.83
2018-01-26T12:56:12.766Z,13.57
2018-01-26T12:58:40.864Z,17.03
2018-01-26T13:01:08.959Z,18.10
2018-01-26T13:03:37.127Z,18.67
2018-01-26T13:06:05.227Z,18.00
2018-01-26T13:08:33.343Z,15.63
2018-01-26T13:11:01.447Z,14.47
2018-01-26T13:13:30.341Z,14.93
2018-01-26T13:15:58.441Z,14.90
2018-01-26T13:18:26.553Z,15.13
2018-01-26T13:20:54.729Z,18.10
2018-01-26T13:23:22.921Z,16.30
2018-01-26T13:25:51.140Z,13.70
2018-01-26T13:28:19.240Z,13.23
2018-01-26T13:30:47.396Z,13.47
2018-01-26T13:33:15.510Z,12.47
2018-01-26T13:35:44.365Z,11.63
2018-01-26T13:38:12.596Z,14.83
2018-01-26T13:40:40.779Z,14.57
2018-01-26T13:43:08.853Z,13.80
2018-01-26T13:45:36.976Z,12.93
2018-01-26T13:48:05.125Z,13.30
2018-01-26T13:50:33.978Z,13.40
2018-01-26T13:53:02.073Z,14.60
2018-01-26T13:55:30.194Z,12.23
2018-01-26T13:57:59.203Z,16.17
2018-01-26T14:00:27.322Z,17.47
2018-01-26T14:02:55.795Z,16.33
2018-01-26T14:05:24.679Z,15.73
2018-01-26T14:07:52.774Z,13.47
2018-01-26T14:10:20.878Z,12.70
2018-01-26T14:12:48.972Z,17.57
2018-01-26T14:15:17.103Z,12.50
2018-01-26T14:17:45.373Z,16.00
2018-01-26T14:20:13.641Z,13.00
2018-01-26T14:22:41.836Z,14.77
2018-01-26T14:25:09.951Z,12.87
2018-01-26T14:27:38.047Z,16.33
2018-01-26T14:30:06.627Z,17.23
2018-01-26T14:32:34.849Z,18.00
2018-01-26T14:35:02.971Z,14.67
2018-01-26T14:37:31.894Z,14.47
2018-01-26T14:40:00.004Z,17.43
2018-01-26T14:42:28.110Z,15.53
2018-01-26T14:44:56.209Z,14.77
2018-01-26T14:47:24.348Z,16.23
2018-01-26T14:49:53.211Z,17.57
2018-01-26T14:52:21.311Z,17.03
2018-01-26T14:54:50.186Z,19.80
2018-01-26T14:57:18.389Z,20.33
2018-01-26T14:59:46.513Z,17.63
2018-01-26T15:02:14.693Z,16.90
2018-01-26T15:04:42.784Z,22.23
2018-01-26T15:07:10.896Z,18.70
2018-01-26T15:09:38.991Z,18.30
2018-01-26T15:12:07.094Z,19.67
2018-01-26T15:14:35.197Z,19.40
2018-01-26T15:17:03.285Z,23.13
2018-01-26T15:19:31.400Z,17.87
2018-01-26T15:21:59.477Z,19.63
2018-01-26T15:24:27.581Z,20.40
2018-01-26T15:26:55.674Z,21.60
2018-01-26T15:29:23.777Z,20.87
2018-01-26T15:31:51.856Z,22.30
2018-01-26T15:34:20.037Z,20.20
2018-01-26T15:36:48.138Z,21.07
2018-01-26T15:39:16.245Z,24.83
2018-01-26T15:41:44.328Z,23.43
2018-01-26T15:44:12.419Z,19.70
2018-01-26T15:46:40.516Z,23.17
2018-01-26T15:49:08.594Z,23.50
2018-01-26T15:51:36.781Z,21.60
2018-01-26T15:54:05.049Z,19.57
2018-01-26T15:56:33.312Z,24.50
2018-01-26T15:59:01.513Z,19.93
2018-01-26T16:01:29.709Z,21.67
2018-01-26T16:03:57.801Z,20.40
2018-01-26T16:06:25.923Z,20.67
2018-01-26T16:08:55.787Z,22.17
2018-01-26T16:11:23.967Z,23.20
2018-01-26T16:13:52.095Z,18.20
2018-01-26T16:16:20.201Z,18.40
2018-01-26T16:18:48.323Z,18.13
2018-01-26T16:21:16.420Z,18.57
2018-01-26T16:23:44.526Z,20.13
2018-01-26T16:26:12.607Z,19.87
2018-01-26T16:28:40.724Z,19.80
2018-01-26T16:31:08.810Z,22.93
2018-01-26T16:33:37.007Z,21.50
2018-01-26T16:36:05.228Z,18.80
2018-01-26T16:38:34.108Z,19.13
2018-01-26T16:41:02.214Z,19.50
2018-01-26T16:43:30.380Z,21.60
2018-01-26T16:45:58.460Z,20.57
2018-01-26T16:48:26.562Z,23.50
2018-01-26T16:50:54.648Z,19.63
2018-01-26T16:53:23.408Z,21.03
2018-01-26T16:55:51.498Z,24.13
2018-01-26T16:58:19.616Z,24.40
2018-01-26T17:00:47.714Z,26.63
2018-01-26T17:03:15.808Z,23.43
2018-01-26T17:05:43.925Z,24.13
2018-01-26T17:08:12.021Z,19.77
2018-01-26T17:10:40.679Z,19.57
2018-01-26T17:13:09.574Z,22.90
2018-01-26T17:15:37.667Z,21.70
2018-01-26T17:18:05.794Z,24.13
2018-01-26T17:20:33.909Z,21.87
2018-01-26T17:23:02.001Z,26.20
2018-01-26T17:25:30.105Z,31.63
2018-01-26T17:27:58.207Z,22.10
2018-01-26T17:30:27.094Z,23.93
2018-01-26T17:32:55.191Z,22.07
2018-01-26T17:35:23.288Z,21.93
2018-01-26T17:37:51.466Z,25.47
2018-01-26T17:40:19.576Z,23.90
2018-01-26T17:42:47.691Z,26.03
2018-01-26T17:45:15.879Z,19.20
2018-01-26T17:47:44.023Z,23.60
2018-01-26T17:50:12.701Z,20.83
2018-01-26T17:52:41.737Z,26.73
2018-01-26T17:55:09.897Z,27.30
2018-01-26T17:57:38.008Z,23.60
2018-01-26T18:00:06.109Z,24.47
2018-01-26T18:02:34.213Z,26.10
2018-01-26T18:05:02.312Z,26.17
2018-01-26T18:07:30.443Z,20.10
2018-01-26T18:09:58.636Z,25.33
2018-01-26T18:12:26.870Z,23.93
2018-01-26T18:14:55.428Z,25.50
2018-01-26T18:17:23.512Z,28.00
2018-01-26T18:19:51.623Z,23.93
2018-01-26T18:22:19.714Z,33.80
2018-01-26T18:24:47.826Z,25.67
2018-01-26T18:27:15.926Z,23.63
2018-01-26T18:29:44.056Z,28.87
2018-01-26T18:32:12.741Z,26.90
2018-01-26T18:34:40.901Z,25.30
2018-01-26T18:37:09.251Z,29.40
2018-01-26T18:39:38.519Z,25.67
2018-01-26T18:42:06.929Z,35.30
2018-01-26T18:44:35.279Z,58.00
2018-01-26T18:47:03.550Z,59.87
2018-01-26T18:49:31.885Z,66.73
2018-01-26T18:52:00.009Z,63.50
2018-01-26T18:54:28.187Z,51.70
2018-01-26T18:56:56.537Z,51.87
2018-01-26T18:59:24.831Z,42.27
2018-01-26T19:01:53.612Z,32.70
2018-01-26T19:04:21.765Z,23.37
2018-01-26T19:06:51.092Z,25.67
2018-01-26T19:09:19.191Z,26.60
2018-01-26T19:11:47.375Z,28.13
2018-01-26T19:14:17.744Z,26.70
2018-01-26T19:16:45.869Z,29.47
2018-01-26T19:19:14.028Z,41.27
2018-01-26T19:21:42.547Z,31.83
2018-01-26T19:24:11.141Z,23.23
2018-01-26T19:26:39.498Z,30.90
2018-01-26T19:29:07.772Z,27.03
2018-01-26T19:31:35.987Z,22.17
2018-01-26T19:34:04.230Z,25.30
2018-01-26T19:36:33.530Z,29.03
2018-01-26T19:39:02.312Z,25.53
2018-01-26T19:41:30.497Z,36.70
2018-01-26T19:43:59.449Z,43.17
2018-01-26T19:46:27.607Z,44.30
2018-01-26T19:48:55.864Z,48.13
2018-01-26T19:51:24.033Z,45.60
2018-01-26T19:53:52.225Z,43.13
2018-01-26T19:56:20.420Z,56.63
2018-01-26T19:58:48.581Z,38.67
2018-01-26T20:01:16.706Z,48.80
2018-01-26T20:04:02.644Z,68.57
2018-01-26T20:06:54.143Z,49.90
2018-01-26T20:09:26.219Z,60.80
2018-01-26T20:11:59.921Z,78.00
2018-01-26T20:14:28.086Z,49.63
2018-01-26T20:16:56.231Z,46.73
2018-01-26T20:19:24.398Z,45.17
2018-01-26T20:21:52.537Z,43.60
2018-01-26T20:24:20.681Z,57.57
2018-01-26T20:26:48.827Z,49.20
2018-01-26T20:29:17.163Z,43.47
2018-01-26T20:31:45.338Z,50.80
2018-01-26T20:34:13.522Z,45.67
2018-01-26T20:36:42.482Z,46.70
2018-01-26T20:39:10.660Z,39.23
2018-01-26T20:41:39.611Z,41.37
2018-01-26T20:44:07.758Z,38.17
2018-01-26T20:46:35.960Z,42.93
2018-01-26T20:49:04.339Z,46.43
2018-01-26T20:51:32.465Z,48.90
2018-01-26T20:54:00.706Z,42.77
2018-01-26T20:56:28.865Z,50.17
2018-01-26T20:58:57.097Z,51.47
2018-01-26T21:01:25.265Z,49.20
2018-01-26T21:03:53.519Z,43.70
2018-01-26T21:06:21.722Z,55.10
2018-01-26T21:08:49.980Z,46.00
2018-01-26T21:11:18.207Z,58.33
2018-01-26T21:13:46.402Z,51.57
2018-01-26T21:16:14.534Z,52.67
2018-01-26T21:18:43.002Z,53.13
2018-01-26T21:21:11.122Z,49.43
2018-01-26T21:23:39.283Z,45.37
2018-01-26T21:26:07.409Z,37.33
2018-01-26T21:28:35.607Z,35.13
2018-01-26T21:31:04.468Z,37.30
2018-01-26T21:33:32.619Z,39.03
2018-01-26T21:36:00.778Z,37.53
2018-01-26T21:38:28.868Z,41.40
2018-01-26T21:40:56.990Z,40.83
2018-01-26T21:43:25.865Z,33.73
2018-01-26T21:45:53.988Z,38.30
2018-01-26T21:48:22.095Z,38.70
2018-01-26T21:50:50.251Z,33.00
2018-01-26T21:53:18.358Z,38.73
2018-01-26T21:55:47.260Z,31.37
2018-01-26T21:58:15.347Z,33.53
2018-01-26T22:00:43.459Z,38.70
2018-01-26T22:03:11.557Z,57.07
2018-01-26T22:05:39.707Z,72.10
2018-01-26T22:08:07.898Z,75.03
2018-01-26T22:10:36.042Z,103.10
2018-01-26T22:13:04.138Z,114.73
2018-01-26T22:15:32.466Z,102.77
2018-01-26T22:18:00.594Z,100.80
2018-01-26T22:20:28.705Z,91.93
2018-01-26T22:22:57.074Z,53.10
2018-01-26T22:25:25.180Z,34.70
2018-01-26T22:27:53.290Z,30.07
2018-01-26T22:30:21.384Z,39.33
2018-01-26T22:32:49.499Z,42.07
2018-01-26T22:35:17.590Z,50.93
2018-01-26T22:37:45.692Z,41.90
2018-01-26T22:40:14.569Z,34.73
2018-01-26T22:42:42.673Z,38.27
2018-01-26T22:45:10.873Z,31.00
2018-01-26T22:47:38.977Z,35.17
2018-01-26T22:50:07.085Z,30.97
2018-01-26T22:52:36.215Z,31.87
2018-01-26T22:55:04.308Z,24.37
2018-01-26T22:57:32.399Z,23.13
2018-01-26T23:00:00.591Z,18.13
2018-01-26T23:02:29.437Z,29.53
2018-01-26T23:04:57.545Z,23.83
2018-01-26T23:07:25.637Z,24.90
2018-01-26T23:09:53.724Z,26.87
2018-01-26T23:12:21.830Z,25.70
2018-01-26T23:14:49.944Z,26.20
2018-01-26T23:17:18.015Z,20.70
2018-01-26T23:19:46.113Z,18.23
2018-01-26T23:22:14.348Z,18.63
2018-01-26T23:24:42.614Z,17.53
2018-01-26T23:27:10.805Z,19.30
2018-01-26T23:29:39.227Z,23.13
2018-01-26T23:32:07.354Z,24.77
2018-01-26T23:34:36.276Z,21.60
2018-01-26T23:37:04.379Z,23.30
2018-01-26T23:39:32.522Z,25.10
2018-01-26T23:42:00.704Z,26.70
2018-01-26T23:44:28.789Z,20.33
2018-01-26T23:46:56.884Z,20.03
2018-01-26T23:49:24.968Z,22.73
2018-01-26T23:51:53.078Z,22.60
2018-01-26T23:54:21.158Z,26.17
2018-01-26T23:56:49.253Z,21.13
2018-01-26T23:59:17.357Z,20.87
